Terminal Aerodrome Forecast
Issued by NWS Norman, OK

Home | Current Version | Previous Version | Text Only | Print | Product List | Glossary On
Versions: 1 2 3 4 5 6 7 8 9 10 11 12 13 14 15 16 17 18 19 20 21
000
FTUS44 KOUN 250530
TAFSPS
TAF
KSPS 250530Z 2506/2606 12005KT P6SM SCT250
     FM252100 10010KT P6SM SCT050 BKN150 PROB30 2600/2603 2SM TSRA
      BKN050CB OVC100
     FM260300 06005KT P6SM BKN050 PROB30 2603/2606 2SM TSRA BKN050CB
      OVC080=

USA.gov is the U.S. government's official web portal to all federal, state and local government web resources and services.